Terminal Aerodrome Forecast
Issued by NWS

Home | Current Version | Previous Version | Graphics & Text | Print | Product List | Glossary On
Versions: 1 2 3 4 5 6 7 8 9 10 11 12 13 14 15 16 17 18 19
218
FTUS43 KABR 161120
TAFPIR
TAF
KPIR 161120Z 1612/1712 VRB04KT P6SM SCT200
     FM161600 13009KT P6SM FEW035
     FM162000 13013KT P6SM FEW070=

USA.gov is the U.S. government's official web portal to all federal, state and local government web resources and services.